• Join FlightAware (Why Join?)
  • Login
  • US Flag 
11:36AM EDT


 

Airport Tracker/Info


-or-


 

Live Flight TrackerFlight Track Log ✈ N143DE ✈ 25-Aug-2013 ✈ KRYY - KJZI

Flight Track Log - Related Links

Times and Time Zones

All times are in EDT time to prevent confusion due to time zone crossing. See the N143DE flight status page for this flight to view local times or setup timezone preferences in your user account.

Time Position Orientation Groundspeed Altitude Reporting Facility
EDT Latitude Longitude Course Direction KTS MPH feet Rate Location/Type
02:27PM 34.0167 -84.5333 121° Southeast 162 186 3,800  Level Atlanta TRACON
02:28PM 34.0000 -84.4667 107° East 159 183 5,900 1,560 Climbing Atlanta TRACON
02:29PM 34.0000 -84.4167 90° East 184 212 7,000 900 Climbing Atlanta TRACON
02:30PM 33.9833 -84.3500 107° East 216 249 7,800 660 Climbing Atlanta TRACON
02:31PM 33.9667 -84.2833 107° East 224 258 8,300 540 Climbing Atlanta TRACON
02:32PM 33.9500 -84.2000 104° East 228 262 8,900 360 Climbing Atlanta TRACON
02:33PM 33.9019 -84.1772 121° Southeast  Level Estimated
02:33PM 33.9500 -84.1167 90° East 234 269 9,100  Level Atlanta TRACON
02:34PM 33.9333 -84.0500 107° East 241 277 9,100  Level Atlanta TRACON
02:36PM 33.9214 -83.9286 97° East 247 284 9,100 180 Level Atlanta Center
02:37PM 33.9153 -83.8436 95° East 240 276 9,700 600 Climbing Atlanta Center
02:38PM 33.9044 -83.7661 100° East 234 269 10,300 600 Climbing Atlanta Center
02:39PM 33.8919 -83.6933 102° East 229 264 10,900 900 Climbing Atlanta Center
02:40PM 33.8811 -83.6208 100° East 224 258 12,100 1,260 Climbing Atlanta Center
02:41PM 33.8767 -83.5558 95° East 205 236 13,500 1,200 Climbing Atlanta Center
02:42PM 33.8722 -83.4933 95° East 195 224 14,600 960 Climbing Atlanta Center
02:43PM 33.8700 -83.4258 92° East 200 230 15,500 960 Climbing Atlanta Center
02:44PM 33.8611 -83.3558 99° East 200 230 16,600 1,020 Climbing Atlanta Center
02:45PM 33.8483 -83.2908 103° East 200 230 17,600 720 Climbing Atlanta Center
02:46PM 33.8417 -83.2233 97° East 200 230 18,100 720 Climbing Atlanta Center
02:47PM 33.8328 -83.1636 100° East 200 230 19,100 1,020 Climbing Atlanta Center
02:48PM 33.8219 -83.0986 101° East 200 230 20,200 960 Climbing Atlanta Center
02:49PM 33.8172 -83.0411 96° East 184 212 21,100 780 Climbing Atlanta Center
02:50PM 33.8083 -82.9789 100° East 184 212 21,800 600 Climbing Atlanta Center
02:51PM 33.7953 -82.9139 104° East 189 217 22,300 600 Climbing Atlanta Center
02:52PM 33.7864 -82.8492 99° East 194 223 23,000 360 Climbing Atlanta Center
02:53PM 33.7753 -82.7717 100° East 199 229 23,100 60 Climbing Atlanta Center
02:54PM 33.7681 -82.6969 97° East 215 247 23,200  Climbing Atlanta Center
02:55PM 33.7589 -82.6194 98° East 224 258 23,100 -60 Descending Atlanta Center
02:56PM 33.7497 -82.5397 98° East 234 269 23,100  Level Atlanta Center
02:57PM 33.7403 -82.4600 98° East 234 269 23,100  Level Atlanta Center
02:58PM 33.7350 -82.3803 95° East 234 269 23,100 -60 Level Atlanta Center
02:59PM 33.7194 -82.3006 103° East 240 276 23,000 -60 Descending Atlanta Center
03:00PM 33.7100 -82.2283 99° East 240 276 23,000  Level Atlanta Center
03:01PM 33.6961 -82.1511 102° East 240 276 23,000  Level Atlanta Center
03:03PM 33.6517 -81.9894 108° East 239 275 23,000  Level Jacksonville Center
03:04PM 33.6303 -81.9147 109° East 239 275 23,100  Climbing Jacksonville Center
03:05PM 33.6044 -81.8428 113° Southeast 239 275 23,000 -60 Descending Jacksonville Center
03:06PM 33.5831 -81.7631 108° East 244 281 23,000  Level Jacksonville Center
03:07PM 33.5594 -81.6911 111° Southeast 244 281 23,000  Level Jacksonville Center
03:08PM 33.5317 -81.6194 115° Southeast 239 275 23,000  Level Jacksonville Center
03:09PM 33.5058 -81.5475 113° Southeast 234 269 23,000 -600 Level Jacksonville Center
03:10PM 33.4861 -81.4706 107° East 229 264 21,900 -1,200 Descending Jacksonville Center
03:11PM 33.4622 -81.3839 108° East 247 284 20,700 -1,320 Descending Jacksonville Center
03:12PM 33.4319 -81.2972 113° Southeast 265 305 19,300 -1,500 Descending Jacksonville Center
03:13PM 33.4036 -81.2106 111° Southeast 277 319 17,800 -1,440 Descending Jacksonville Center
03:14PM 33.3753 -81.1217 111° Southeast 277 319 16,500 -1,320 Descending Jacksonville Center
03:15PM 33.3469 -81.0375 112° Southeast 277 319 15,200 -1,260 Descending Jacksonville Center
03:16PM 33.3228 -80.9561 110° East 271 312 14,000 -1,260 Descending Jacksonville Center
03:17PM 33.2964 -80.8747 111° Southeast 271 312 12,700 -1,140 Descending Jacksonville Center
03:18PM 33.2700 -80.7958 112° Southeast 264 304 11,800 -840 Descending Jacksonville Center
03:19PM 33.2458 -80.7194 111° Southeast 259 298 11,100 -420 Descending Jacksonville Center
03:20PM 33.2239 -80.6503 111° Southeast 240 276 11,000 -420 Descending Jacksonville Center
03:21PM 33.1831 -80.5894 129° Southeast 227 261 10,300 -1,200 Descending Jacksonville Center
03:22PM 33.1217 -80.5489 151° Southeast 227 261 8,700 -1,440 Descending Jacksonville Center
03:23PM 33.0603 -80.5033 148° Southeast 249 287 7,500 -1,500 Descending Jacksonville Center
03:24PM 33.0031 -80.4478 141° Southeast 254 292 5,700 -1,500 Descending Jacksonville Center
03:25PM 32.9517 -80.3922 138° Southeast 254 292 4,500 -960 Descending Jacksonville Center
03:26PM 32.8986 -80.3442 143° Southeast 249 287 3,800 -840 Descending Jacksonville Center
03:27PM 32.8558 -80.2911 134° Southeast 239 275 2,900 -900 Descending Jacksonville Center
03:29PM 32.8128 -80.2108 128° Southeast  Level Estimated
03:36PM 32.7000 -80.0000 132° Southeast  Level FlightAware Approximate